Flight Track Log - Related Links

Times and Time Zones

All times are in EDT time to prevent confusion due to time zone crossing. See the N333RL flight status page for this flight to view local times or setup timezone preferences in your user account.

Time Position Orientation Groundspeed Altitude Reporting Facility
EDT Latitude Longitude Course Direction KTS MPH feet Rate Location/Type
Tue 02:56:25 PM 41.8000 -87.7333 90° East 167 192 1,800  Level Chicago TRACON
Tue 02:57:26 PM 41.8000 -87.6500 90° East 200 230 3,700 1,613 Climbing Chicago TRACON
Tue 02:58:24 PM 41.8114 -87.5889 76° East 203 234 5,000 1,150 Climbing Chicago Center
Tue 02:59:26 PM 41.8072 -87.4919 93° East 253 291 6,000 2,323 Climbing Chicago Center
Tue 03:00:28 PM 41.7969 -87.3911 98° East 273 314 9,800 3,696 Climbing Chicago Center
Tue 03:01:31 PM 41.7822 -87.2583 98° East 306 352 13,700 3,312 Climbing Chicago Center
Tue 03:02:33 PM 41.7719 -87.1475 97° East 303 349 16,700 2,371 Climbing Chicago Center
Tue 03:03:35 PM 41.7864 -87.0300 81° East 325 374 18,600 1,113 Climbing Chicago Center
Tue 03:04:37 PM 41.7989 -86.9108 82° East 325 374 19,000 194 Climbing Chicago Center
Tue 03:05:39 PM 41.8119 -86.7853 82° East 336 387 19,000  Level Chicago Center
Tue 03:06:41 PM 41.8292 -86.6225 82° East 372 428 19,000  Level Chicago Center
Tue 03:07:43 PM 41.8467 -86.4747 81° East 400 460 19,000  Level Chicago Center
Tue 03:08:45 PM 41.8983 -86.3417 62° Northeast 404 465 19,000  Level Chicago Center
Tue 03:09:47 PM 41.9600 -86.2228 55° Northeast 391 450 19,000  Level Chicago Center
Tue 03:10:49 PM 42.0214 -86.1011 56° Northeast 390 449 19,000  Level Chicago Center
Tue 03:11:52 PM 42.0931 -85.9625 55° Northeast 399 459 19,000  Level Chicago Center
Tue 03:12:54 PM 42.1553 -85.8372 56° Northeast 404 465 19,000  Level Chicago Center
Tue 03:13:56 PM 42.2178 -85.7131 56° Northeast 403 464 19,000  Level Chicago Center
Tue 03:14:58 PM 42.2789 -85.5911 56° Northeast 397 457 19,000  Level Chicago Center
Tue 03:16:00 PM 42.3411 -85.4653 56° Northeast 402 463 19,000  Level Chicago Center
Tue 03:17:02 PM 42.4136 -85.3169 56° Northeast 399 459 19,000  Level Chicago Center
Tue 03:18:04 PM 42.4744 -85.1947 56° Northeast 396 456 19,000  Level Chicago Center
Tue 03:19:06 PM 42.5347 -85.0711 56° Northeast 396 456 19,000  Level Chicago Center
Tue 03:20:08 PM 42.5964 -84.9464 56° Northeast 399 459 19,000 -339 Level Chicago Center
Tue 03:21:10 PM 42.6578 -84.8206 56° Northeast 401 461 18,300 -871 Descending Chicago Center
Tue 03:22:12 PM 42.7103 -84.6581 66° East 392 451 17,200 -1,074 Descending Chicago Center
Tue 03:22:45 PM 42.7156 -84.5936 84° East 372 428 16,600 -1,484 Descending Cleveland Center
Tue 03:23:45 PM 42.7139 -84.4550 91° East 360 414 14,900 -1,902 Descending Cleveland Center
Tue 03:24:07 PM 42.7117 -84.3981 93° East 353 406 14,000 -2,200 Descending Cleveland Center
Tue 03:24:45 PM 42.7125 -84.3133 89° East 353 406 12,700 -1,898 Descending Cleveland Center
Tue 03:25:45 PM 42.7039 -84.1914 95° East 338 389 10,900 -1,700 Descending Cleveland Center
Tue 03:26:45 PM 42.6900 -84.0975 101° East 300 345 9,300 -806 Descending Cleveland Center
Tue 03:27:59 PM 42.6689 -83.9664 102° East 265 305 9,100 -533 Descending Cleveland Center
Tue 03:29:00 PM 42.6489 -83.8636 105° East 278 320 8,100 -1,019 Descending Cleveland Center
Tue 03:29:45 PM 42.6281 -83.7919 112° Southeast 266 306 7,300 -1,180 Descending Cleveland Center
Tue 03:30:01 PM 42.6203 -83.7717 118° Southeast 257 296 6,900 -1,377 Descending Cleveland Center
Tue 03:30:46 PM 42.6033 -83.7031 109° East 261 300 5,900 -1,400 Descending Cleveland Center
Tue 03:31:01 PM 42.6000 -83.6719 98° East 259 298 5,500 -915 Descending Cleveland Center
Tue 03:31:45 PM 42.5850 -83.6092 108° East 261 300 5,000 -787 Descending Cleveland Center
Tue 03:32:02 PM 42.5836 -83.5808 94° East 251 289 4,700 -538 Descending Cleveland Center
Tue 03:33:03 PM 42.5672 -83.4928 104° East 236 272 4,300 -295 Descending Cleveland Center
Tue 03:34:04 PM 42.5506 -83.4103 105° East 225 259 4,100 -98 Descending Cleveland Center
Tue 03:35:05 PM 42.5339 -83.3278 105° East 225 259 4,100 -393 Level Cleveland Center
Tue 03:36:06 PM 42.5150 -83.2422 107° East 228 262 3,300 -443 Descending Cleveland Center
Tue 03:37:07 PM 42.5022 -83.1631 102° East 198 228 3,200 -344 Descending Cleveland Center
Tue 03:38:08 PM 42.4850 -83.0947 109° East 177 204 2,600 -738 Descending Cleveland Center
Tue 03:39:09 PM 42.4525 -83.0539 137° Southeast 162 186 1,700 -885 Descending Cleveland Center
Tue 03:41:00 PM 42.4093 -83.0102 105° East  Level Estimated
Tue 03:48:00 PM 42.4093 -83.0102 105° East  Level Estimated
Tue 03:49:00 PM 42.4093 -83.0102 105° East  Level Estimated

Login

Don't have an account? Register now (free) for customized features, flight alerts, and more!